Time;durP1;ratioP1;P1;durP2;ratioP2;P2;SDS_P1;SDS_P2;PMS_P1;PMS_P2;Temp;Humidity;BMP_temperature;BMP_pressure;BME280_temperature;BME280_humidity;BME280_pressure;Samples;Min_cycle;Max_cycle;Signal;HPM_P1;HPM_P2
2022/11/19 00:04:54;;;;;;;3.13;2.00;;;10.40;49.30;;;;;;10384391;28;20249;-68
2022/11/19 00:09:57;;;;;;;2.00;1.50;;;10.40;49.60;;;;;;10383144;28;20777;-67
2022/11/19 00:15:00;;;;;;;5.10;1.83;;;10.30;49.40;;;;;;10380894;28;20242;-70
2022/11/19 00:20:05;;;;;;;2.77;1.80;;;10.30;49.50;;;;;;10383052;28;20228;-69
2022/11/19 00:25:09;;;;;;;1.80;1.50;;;10.30;49.50;;;;;;10379062;28;20236;-68
2022/11/19 00:30:13;;;;;;;1.50;1.40;;;10.40;49.50;;;;;;10376101;28;20225;-68
2022/11/19 00:35:38;;;;;;;1.33;1.23;;;10.40;49.50;;;;;;10383228;28;20276;-68
2022/11/19 00:40:42;;;;;;;1.97;1.87;;;10.30;49.50;;;;;;10386081;28;20233;-67
2022/11/19 00:45:45;;;;;;;1.50;1.30;;;10.40;49.40;;;;;;10378626;28;20230;-67
2022/11/19 00:50:49;;;;;;;2.60;2.40;;;10.40;49.30;;;;;;10380415;28;20230;-67
2022/11/19 00:55:53;;;;;;;2.50;2.30;;;10.30;49.20;;;;;;10375494;28;20221;-67
2022/11/19 01:00:56;;;;;;;2.00;1.90;;;10.30;49.30;;;;;;10382295;28;20668;-67
2022/11/19 01:06:01;;;;;;;2.93;1.90;;;10.30;49.50;;;;;;10384063;28;20236;-67
2022/11/19 01:11:05;;;;;;;2.00;1.63;;;10.30;49.50;;;;;;10380669;28;20607;-69
2022/11/19 01:16:11;;;;;;;1.40;1.30;;;10.30;49.50;;;;;;10380079;28;20229;-68
2022/11/19 01:21:17;;;;;;;1.67;1.30;;;10.30;49.30;;;;;;10342797;28;1146594;-68
2022/11/19 01:26:20;;;;;;;1.60;1.50;;;10.30;49.30;;;;;;10393025;28;20776;-68
2022/11/19 01:31:27;;;;;;;1.60;1.47;;;10.30;49.40;;;;;;10386247;28;20307;-67
2022/11/19 01:36:31;;;;;;;1.67;1.50;;;10.30;49.50;;;;;;10379915;28;20245;-67
2022/11/19 01:41:34;;;;;;;3.37;1.40;;;10.20;49.50;;;;;;10383890;28;20234;-68
2022/11/19 01:46:41;;;;;;;1.70;1.60;;;10.20;49.50;;;;;;10382408;28;20238;-67
2022/11/19 01:51:51;;;;;;;2.40;1.50;;;10.20;49.70;;;;;;10379076;28;20230;-67
2022/11/19 01:56:56;;;;;;;1.70;1.50;;;10.20;49.70;;;;;;10382286;28;20292;-67
2022/11/19 02:01:59;;;;;;;1.60;1.50;;;10.30;49.70;;;;;;10380732;28;20253;-67
2022/11/19 02:07:04;;;;;;;1.40;1.30;;;10.30;50.30;;;;;;10377405;28;20287;-68
2022/11/19 02:12:19;;;;;;;1.80;1.50;;;10.30;49.50;;;;;;10382487;28;20222;-68
2022/11/19 02:17:37;;;;;;;1.50;1.40;;;10.30;49.50;;;;;;10399299;28;20230;-67
2022/11/19 02:23:18;;;;;;;2.40;1.57;;;10.30;49.50;;;;;;10384279;28;20640;-68
2022/11/19 02:28:38;;;;;;;1.70;1.60;;;10.20;50.20;;;;;;10375573;28;20721;-68
2022/11/19 02:33:50;;;;;;;1.90;1.60;;;10.20;49.70;;;;;;10381211;28;20230;-68
2022/11/19 02:39:01;;;;;;;1.97;1.50;;;10.20;49.70;;;;;;10381461;28;20237;-67
2022/11/19 02:49:39;;;;;;;1.70;1.60;;;10.10;50.00;;;;;;10381740;28;20730;-67
2022/11/19 02:54:42;;;;;;;1.83;1.50;;;10.10;49.80;;;;;;10377506;28;20234;-68
2022/11/19 03:05:18;;;;;;;2.30;2.07;;;10.10;50.10;;;;;;10376005;28;20702;-68
2022/11/19 03:10:25;;;;;;;2.53;2.30;;;10.10;50.10;;;;;;10377714;28;20267;-67
2022/11/19 03:21:07;;;;;;;3.07;2.27;;;10.10;50.10;;;;;;10380839;28;20234;-67
2022/11/19 03:26:20;;;;;;;2.20;2.00;;;10.20;50.20;;;;;;10380231;28;20221;-68
2022/11/19 03:31:25;;;;;;;3.40;2.33;;;10.20;50.00;;;;;;10378355;28;20262;-67
2022/11/19 03:36:35;;;;;;;2.73;2.20;;;10.20;49.70;;;;;;10378943;28;20269;-68
2022/11/19 03:41:40;;;;;;;2.80;2.10;;;10.10;49.70;;;;;;10379380;28;20779;-67
2022/11/19 03:46:45;;;;;;;3.33;2.20;;;10.10;50.50;;;;;;10379027;28;20221;-67
2022/11/19 03:51:56;;;;;;;2.70;2.10;;;10.10;49.80;;;;;;10380199;28;20229;-67
2022/11/19 03:57:00;;;;;;;2.40;2.20;;;10.10;49.70;;;;;;10374647;28;20238;-67
2022/11/19 04:02:06;;;;;;;2.10;1.90;;;10.10;49.60;;;;;;10375295;28;20666;-68
2022/11/19 04:07:13;;;;;;;3.40;1.97;;;10.10;49.70;;;;;;10379444;28;20233;-68
2022/11/19 04:12:18;;;;;;;2.87;2.20;;;10.10;49.60;;;;;;10376870;28;20237;-68
2022/11/19 04:17:21;;;;;;;3.07;2.10;;;10.10;49.60;;;;;;10386006;28;20252;-67
2022/11/19 04:22:26;;;;;;;2.23;2.03;;;10.10;49.50;;;;;;10385092;28;20243;-68
2022/11/19 04:27:29;;;;;;;2.57;2.17;;;10.10;49.50;;;;;;10379121;28;20304;-68
2022/11/19 04:32:32;;;;;;;3.20;2.17;;;10.20;49.50;;;;;;10385404;28;20234;-68
2022/11/19 04:37:36;;;;;;;3.13;2.20;;;10.20;49.30;;;;;;10385178;28;20229;-67
2022/11/19 04:42:39;;;;;;;3.20;2.10;;;10.10;49.40;;;;;;10382284;28;20718;-67
2022/11/19 04:47:43;;;;;;;1.40;1.30;;;10.20;49.50;;;;;;10386646;28;20767;-68
2022/11/19 04:52:47;;;;;;;1.60;1.20;;;10.20;48.70;;;;;;10381066;28;20974;-67
2022/11/19 04:57:52;;;;;;;1.20;1.10;;;10.20;47.40;;;;;;10383814;28;20221;-67
2022/11/19 05:02:55;;;;;;;0.80;0.80;;;10.10;46.70;;;;;;10381628;28;20224;-68
2022/11/19 05:07:59;;;;;;;1.10;1.00;;;9.90;47.00;;;;;;10384930;28;20772;-67
2022/11/19 05:13:02;;;;;;;1.00;1.00;;;9.80;46.80;;;;;;10384436;28;20226;-68
2022/11/19 05:18:06;;;;;;;1.40;1.10;;;9.60;47.10;;;;;;10383366;28;20230;-68
2022/11/19 05:23:10;;;;;;;0.93;0.93;;;9.50;47.40;;;;;;10383506;28;20276;-68
2022/11/19 05:28:13;;;;;;;1.20;1.10;;;9.30;47.50;;;;;;10381569;28;20725;-68
2022/11/19 05:33:17;;;;;;;0.90;0.90;;;9.30;47.70;;;;;;10379057;28;20225;-68
2022/11/19 05:38:22;;;;;;;0.80;0.80;;;9.20;47.70;;;;;;10379370;28;20777;-67
2022/11/19 05:43:25;;;;;;;0.80;0.80;;;9.10;47.30;;;;;;10382246;28;20657;-67
2022/11/19 05:48:29;;;;;;;0.83;0.70;;;9.00;47.30;;;;;;10382429;28;20242;-67
2022/11/19 05:53:34;;;;;;;2.03;1.00;;;9.00;47.50;;;;;;10379334;28;20237;-67
2022/11/19 05:58:37;;;;;;;1.30;1.20;;;8.90;47.40;;;;;;10381678;28;20792;-67
2022/11/19 06:03:40;;;;;;;1.10;1.10;;;8.90;47.60;;;;;;10379371;28;20273;-67
2022/11/19 06:08:45;;;;;;;1.20;1.20;;;8.80;47.60;;;;;;10382710;28;20286;-67
2022/11/19 06:13:48;;;;;;;1.10;1.10;;;8.80;47.50;;;;;;10375089;28;20647;-67
2022/11/19 06:18:51;;;;;;;1.10;1.10;;;8.80;47.50;;;;;;10384839;28;20229;-67
2022/11/19 06:23:55;;;;;;;1.00;1.00;;;8.70;47.60;;;;;;10381912;28;20217;-67
2022/11/19 06:28:58;;;;;;;1.17;1.10;;;8.70;47.80;;;;;;10383282;28;20225;-67
2022/11/19 06:34:02;;;;;;;1.40;1.30;;;8.70;47.90;;;;;;10381777;28;20221;-68
2022/11/19 06:39:06;;;;;;;1.30;1.20;;;8.70;47.90;;;;;;10379529;28;20238;-67
2022/11/19 06:44:09;;;;;;;1.00;1.00;;;8.70;48.10;;;;;;10377880;28;20277;-68
2022/11/19 06:49:13;;;;;;;1.20;1.10;;;8.70;48.20;;;;;;10381815;28;20225;-67
2022/11/19 06:54:23;;;;;;;1.40;1.30;;;8.70;48.10;;;;;;10379312;28;20313;-67
2022/11/19 06:59:26;;;;;;;1.27;1.27;;;8.80;47.80;;;;;;10382309;28;20993;-68
2022/11/19 07:04:29;;;;;;;1.27;1.27;;;8.80;47.80;;;;;;10379733;28;20722;-67
2022/11/19 07:09:34;;;;;;;1.80;1.70;;;8.80;47.60;;;;;;10385246;28;20293;-67
2022/11/19 07:14:37;;;;;;;1.60;1.50;;;8.80;47.50;;;;;;10380742;28;20288;-67
2022/11/19 07:19:40;;;;;;;1.47;1.37;;;8.70;47.40;;;;;;10377001;28;20245;-67
2022/11/19 07:24:44;;;;;;;1.87;1.77;;;8.70;47.40;;;;;;10380478;28;20237;-67
2022/11/19 07:29:48;;;;;;;1.63;1.53;;;8.70;48.20;;;;;;10375760;28;20271;-67
2022/11/19 07:34:51;;;;;;;2.10;1.90;;;8.70;47.60;;;;;;10378185;28;20233;-67
2022/11/19 07:39:55;;;;;;;2.27;2.17;;;8.60;47.50;;;;;;10377390;28;20240;-67
2022/11/19 07:44:58;;;;;;;3.10;2.10;;;8.70;47.50;;;;;;10377577;28;20234;-68
2022/11/19 07:50:02;;;;;;;2.10;2.00;;;8.70;47.50;;;;;;10384399;28;20284;-71
2022/11/19 07:55:08;;;;;;;2.17;2.07;;;8.60;47.60;;;;;;10383625;28;21312;-68
2022/11/19 08:00:13;;;;;;;2.17;2.07;;;8.60;47.50;;;;;;10381521;28;20718;-68
2022/11/19 08:05:16;;;;;;;2.40;2.20;;;8.60;47.60;;;;;;10386493;28;20242;-68
2022/11/19 08:10:21;;;;;;;2.70;2.50;;;8.60;47.60;;;;;;10383217;28;20223;-68
2022/11/19 08:15:24;;;;;;;2.20;2.10;;;8.60;47.50;;;;;;10382050;28;20259;-68
2022/11/19 08:20:27;;;;;;;2.77;2.57;;;8.60;47.70;;;;;;10383459;28;20230;-68
2022/11/19 08:25:32;;;;;;;2.80;2.60;;;8.50;47.60;;;;;;10381156;28;20238;-68
2022/11/19 08:30:35;;;;;;;2.77;2.57;;;8.60;48.50;;;;;;10380350;28;20719;-68
2022/11/19 08:35:39;;;;;;;2.83;2.63;;;8.60;47.80;;;;;;10383243;28;20222;-68
2022/11/19 08:40:43;;;;;;;3.73;2.67;;;8.50;47.60;;;;;;10385900;28;20230;-68
2022/11/19 08:45:53;;;;;;;3.20;3.00;;;8.60;47.70;;;;;;10385386;28;20229;-67
2022/11/19 08:50:56;;;;;;;3.00;2.80;;;8.50;47.70;;;;;;10383363;28;20230;-69
2022/11/19 08:56:01;;;;;;;3.00;2.80;;;8.50;47.70;;;;;;10381888;28;20234;-67
2022/11/19 09:01:10;;;;;;;3.70;3.40;;;8.50;47.80;;;;;;10382368;28;20221;-68
2022/11/19 09:06:13;;;;;;;3.20;3.00;;;8.50;47.70;;;;;;10376835;28;20309;-68
2022/11/19 09:11:20;;;;;;;3.23;3.03;;;8.50;47.90;;;;;;10381457;28;20721;-68
2022/11/19 09:16:23;;;;;;;3.77;3.47;;;8.50;47.90;;;;;;10380372;28;20245;-68
2022/11/19 09:21:26;;;;;;;3.80;3.50;;;8.50;47.90;;;;;;10380685;28;20238;-68
2022/11/19 09:26:30;;;;;;;3.67;3.37;;;8.50;47.90;;;;;;10379890;28;20250;-68
2022/11/19 09:31:33;;;;;;;3.93;3.63;;;8.50;48.10;;;;;;10379920;28;20233;-68
2022/11/19 09:36:36;;;;;;;4.13;3.83;;;8.50;48.20;;;;;;10376429;28;20237;-68
2022/11/19 09:41:50;;;;;;;4.53;4.17;;;8.50;48.10;;;;;;10379732;28;20245;-68
2022/11/19 09:47:02;;;;;;;4.17;3.87;;;8.50;48.20;;;;;;10377961;28;20908;-67
2022/11/19 09:52:09;;;;;;;4.17;3.87;;;8.60;48.40;;;;;;10378323;28;20221;-68
2022/11/19 09:57:23;;;;;;;6.87;6.37;;;8.60;48.40;;;;;;10379903;28;20233;-68
2022/11/19 10:02:27;;;;;;;5.00;4.60;;;8.60;48.50;;;;;;10384551;28;20996;-68
2022/11/19 10:07:38;;;;;;;4.83;4.47;;;8.60;48.30;;;;;;10381748;28;20313;-68
2022/11/19 10:13:11;;;;;;;3.60;3.30;;;8.60;48.50;;;;;;10376816;28;20271;-68
2022/11/19 10:18:20;;;;;;;5.87;4.70;;;8.60;50.00;;;;;;10376023;28;20248;-69
2022/11/19 10:23:29;;;;;;;4.70;4.30;;;8.60;49.30;;;;;;10383527;28;20773;-68
2022/11/19 10:28:38;;;;;;;5.87;4.97;;;8.60;49.30;;;;;;10375006;28;20249;-68
2022/11/19 10:33:48;;;;;;;5.17;4.77;;;8.70;49.80;;;;;;10380589;28;20598;-70
2022/11/19 10:38:57;;;;;;;5.03;4.63;;;8.70;49.90;;;;;;10378796;28;20671;-68
2022/11/19 10:44:10;;;;;;;6.13;5.63;;;8.90;49.50;;;;;;10376688;28;20653;-68
2022/11/19 10:49:13;;;;;;;5.40;5.00;;;9.00;49.40;;;;;;10376745;28;20272;-67
2022/11/19 10:54:24;;;;;;;6.67;6.07;;;9.00;49.20;;;;;;10379798;28;20227;-68
2022/11/19 10:59:31;;;;;;;7.47;6.77;;;9.10;48.90;;;;;;10379947;28;21210;-68
2022/11/19 11:04:34;;;;;;;6.97;6.37;;;9.20;49.40;;;;;;10380394;28;20246;-70
2022/11/19 11:09:39;;;;;;;7.33;6.70;;;9.20;49.40;;;;;;10381833;28;20226;-68
2022/11/19 11:14:54;;;;;;;7.77;7.07;;;9.30;49.40;;;;;;10373015;28;20242;-67
2022/11/19 11:19:59;;;;;;;9.13;8.27;;;9.40;48.90;;;;;;10383883;28;20701;-69
2022/11/19 11:25:03;;;;;;;9.10;8.30;;;9.40;48.50;;;;;;10383646;28;20229;-67
2022/11/19 11:30:18;;;;;;;10.00;9.07;;;9.40;48.40;;;;;;10386753;28;20324;-67
2022/11/19 11:35:33;;;;;;;11.93;10.90;;;9.40;48.20;;;;;;10392327;28;20244;-67
2022/11/19 11:40:36;;;;;;;12.23;11.13;;;9.40;47.90;;;;;;10390193;28;20977;-67
2022/11/19 11:45:41;;;;;;;15.07;13.57;;;9.40;47.70;;;;;;10395962;28;20709;-69
2022/11/19 11:50:46;;;;;;;15.00;13.50;;;9.30;47.70;;;;;;10392866;28;20299;-69
2022/11/19 11:55:57;;;;;;;15.83;14.33;;;9.20;47.40;;;;;;10391268;28;20772;-68
2022/11/19 12:01:17;;;;;;;15.40;13.90;;;9.10;47.10;;;;;;10398016;28;20237;-67
2022/11/19 12:06:24;;;;;;;15.43;14.00;;;9.00;47.40;;;;;;10393600;28;20226;-66
2022/11/19 12:17:27;;;;;;;19.67;14.73;;;8.90;47.80;;;;;;10419937;28;20233;-74
2022/11/19 12:22:45;;;;;;;13.83;12.53;;;8.90;47.50;;;;;;10411235;28;20237;-74
2022/11/19 12:28:10;;;;;;;15.07;13.63;;;8.90;47.50;;;;;;10411193;28;20234;-74
2022/11/19 12:33:28;;;;;;;15.83;14.23;;;8.80;47.80;;;;;;10404393;28;20228;-76
2022/11/19 12:38:46;;;;;;;14.73;13.23;;;8.80;48.00;;;;;;10408793;28;20232;-75
2022/11/19 12:43:55;;;;;;;16.43;14.80;;;8.80;48.00;;;;;;10378867;28;20236;-76
2022/11/19 12:49:24;;;;;;;16.27;14.67;;;8.80;48.00;;;;;;10403818;28;20614;-74
2022/11/19 12:54:40;;;;;;;17.47;15.77;;;8.80;47.80;;;;;;10387994;28;20226;-70
2022/11/19 13:00:00;;;;;;;16.33;14.63;;;8.80;47.90;;;;;;10378124;28;20238;-76
2022/11/19 13:05:12;;;;;;;18.17;16.27;;;8.70;49.70;;;;;;10390626;28;20730;-75
2022/11/19 13:10:20;;;;;;;18.07;16.17;;;8.80;48.50;;;;;;10398929;28;20229;-77
2022/11/19 13:15:29;;;;;;;19.00;17.20;;;8.80;47.90;;;;;;10403078;28;20694;-76
2022/11/19 13:20:43;;;;;;;17.80;15.87;;;8.70;47.60;;;;;;10395688;28;20233;-77
2022/11/19 13:25:54;;;;;;;17.67;15.87;;;8.70;47.40;;;;;;10401318;28;20599;-76
2022/11/19 13:31:05;;;;;;;19.37;17.47;;;8.70;47.50;;;;;;10396465;28;20232;-75
2022/11/19 13:36:18;;;;;;;26.67;23.90;;;8.60;47.60;;;;;;10387258;28;20233;-75
2022/11/19 13:41:28;;;;;;;28.93;25.47;;;8.60;47.80;;;;;;10405746;28;20225;-74
2022/11/19 13:46:37;;;;;;;25.30;22.60;;;8.50;47.70;;;;;;10390362;28;20237;-75
2022/11/19 13:51:45;;;;;;;23.70;21.20;;;8.50;47.60;;;;;;10380923;28;20606;-75
2022/11/19 13:56:50;;;;;;;24.30;21.67;;;8.50;47.60;;;;;;10392343;28;20710;-75
2022/11/19 14:02:13;;;;;;;23.13;20.67;;;8.40;47.60;;;;;;10392623;28;20617;-75
2022/11/19 14:07:34;;;;;;;20.40;18.20;;;8.30;47.80;;;;;;10385704;28;20232;-75
2022/11/19 14:13:01;;;;;;;20.40;18.20;;;8.30;48.00;;;;;;10391128;28;20229;-75
2022/11/19 14:29:06;;;;;;;17.17;15.33;;;8.30;49.70;;;;;;10395207;28;20240;-77
2022/11/19 14:34:25;;;;;;;20.27;17.97;;;8.40;50.10;;;;;;10404795;28;20233;-74
2022/11/19 14:39:32;;;;;;;20.40;17.80;;;8.60;49.80;;;;;;10400875;28;20893;-75
2022/11/19 14:44:36;;;;;;;20.60;18.40;;;8.70;49.00;;;;;;10387437;28;20229;-69
2022/11/19 14:49:40;;;;;;;20.10;18.00;;;8.70;48.80;;;;;;10378872;28;20289;-69
2022/11/19 14:54:45;;;;;;;17.60;15.83;;;8.80;48.80;;;;;;10372884;28;20229;-69
2022/11/19 14:59:51;;;;;;;17.87;16.00;;;8.90;48.80;;;;;;10375597;28;20234;-70
2022/11/19 15:04:59;;;;;;;20.33;18.23;;;8.90;48.70;;;;;;10374132;28;20725;-71
2022/11/19 15:10:42;;;;;;;20.33;18.13;;;9.00;48.80;;;;;;10380592;28;20262;-71
2022/11/19 15:15:47;;;;;;;19.20;17.30;;;9.00;48.80;;;;;;10369008;28;20256;-71
2022/11/19 15:21:22;;;;;;;20.17;18.07;;;9.10;48.60;;;;;;10372723;28;20236;-70
2022/11/19 15:26:35;;;;;;;18.93;16.57;;;9.10;48.00;;;;;;10367287;28;20698;-70
2022/11/19 15:32:02;;;;;;;18.90;16.90;;;9.10;47.90;;;;;;10390907;28;20237;-75
2022/11/19 15:37:12;;;;;;;22.07;18.17;;;9.10;48.10;;;;;;10389734;28;20229;-70
2022/11/19 15:42:21;;;;;;;20.30;18.10;;;9.10;48.10;;;;;;10375596;28;20222;-70
2022/11/19 15:47:31;;;;;;;21.70;19.37;;;9.10;48.00;;;;;;10377207;28;20241;-70
2022/11/19 15:52:34;;;;;;;22.60;20.17;;;9.00;47.80;;;;;;10375701;28;20226;-71
2022/11/19 15:57:43;;;;;;;24.60;20.47;;;9.00;47.60;;;;;;10370464;28;20241;-70
2022/11/19 16:02:48;;;;;;;23.97;20.57;;;9.00;47.40;;;;;;10377074;28;20280;-70
2022/11/19 16:07:53;;;;;;;23.03;20.33;;;8.80;47.20;;;;;;10373107;28;20242;-69
2022/11/19 16:18:20;;;;;;;21.33;18.50;;;8.60;46.90;;;;;;10388756;28;20230;-71
2022/11/19 16:23:24;;;;;;;19.10;17.00;;;8.50;46.90;;;;;;10381197;28;20244;-69
2022/11/19 16:28:30;;;;;;;18.43;16.17;;;8.40;47.00;;;;;;10379012;28;20719;-76
2022/11/19 16:33:34;;;;;;;19.30;16.73;;;8.30;47.10;;;;;;10384135;28;20238;-70
2022/11/19 16:38:39;;;;;;;15.93;13.23;;;8.30;47.40;;;;;;10381717;28;20245;-70
2022/11/19 16:43:48;;;;;;;15.87;14.13;;;8.30;47.80;;;;;;10384477;28;20979;-69
2022/11/19 16:48:56;;;;;;;16.17;14.10;;;8.20;47.80;;;;;;10382977;28;20269;-69
2022/11/19 16:53:59;;;;;;;17.67;14.77;;;8.20;47.70;;;;;;10380836;28;20241;-69
2022/11/19 16:59:05;;;;;;;16.77;15.00;;;8.30;47.90;;;;;;10384841;28;20284;-70
2022/11/19 17:04:14;;;;;;;17.97;15.43;;;8.30;47.40;;;;;;10378367;28;20233;-69
2022/11/19 17:09:40;;;;;;;16.27;14.50;;;8.30;47.10;;;;;;10385874;28;20710;-69
2022/11/19 17:14:56;;;;;;;16.23;14.47;;;8.20;47.00;;;;;;10381794;28;20238;-67
2022/11/19 17:20:00;;;;;;;15.60;13.93;;;8.20;47.40;;;;;;10379380;28;20230;-69
2022/11/19 17:25:04;;;;;;;16.53;14.70;;;8.10;47.60;;;;;;10383211;28;20229;-68
2022/11/19 17:30:19;;;;;;;15.20;13.60;;;8.10;47.50;;;;;;10376664;28;20717;-68
2022/11/19 17:35:33;;;;;;;14.93;13.33;;;8.20;47.50;;;;;;10380115;28;20241;-67
2022/11/19 17:40:37;;;;;;;14.87;13.37;;;8.10;47.20;;;;;;10382931;28;20238;-69
2022/11/19 17:45:41;;;;;;;16.00;13.73;;;8.10;47.30;;;;;;10377642;28;20230;-70
2022/11/19 17:50:44;;;;;;;16.23;14.50;;;8.10;47.10;;;;;;10383172;28;20222;-69
2022/11/19 17:55:50;;;;;;;15.40;13.80;;;8.00;46.90;;;;;;10374114;28;20238;-72
2022/11/19 18:00:54;;;;;;;14.93;13.33;;;7.90;46.90;;;;;;10378838;28;20781;-68
2022/11/19 18:05:57;;;;;;;13.80;12.30;;;7.80;46.60;;;;;;10379599;28;20702;-76
2022/11/19 18:11:02;;;;;;;13.43;12.03;;;7.60;46.50;;;;;;10384899;28;20225;-67
2022/11/19 18:16:13;;;;;;;12.97;11.67;;;7.50;46.80;;;;;;10348648;28;20222;-68
2022/11/19 18:21:18;;;;;;;11.67;10.47;;;7.40;47.90;;;;;;10340582;28;20814;-68
2022/11/19 18:26:23;;;;;;;12.17;10.70;;;7.40;47.50;;;;;;10340712;28;20237;-68
2022/11/19 18:31:28;;;;;;;12.13;10.70;;;7.50;47.90;;;;;;10338424;28;20222;-68
2022/11/19 18:36:31;;;;;;;11.53;10.33;;;7.50;47.80;;;;;;10341381;28;20242;-68
2022/11/19 18:41:34;;;;;;;10.77;9.67;;;7.60;47.90;;;;;;10334537;28;20654;-68
2022/11/19 18:46:39;;;;;;;12.23;11.03;;;7.60;47.80;;;;;;10338806;28;20234;-68
2022/11/19 18:51:43;;;;;;;11.70;10.50;;;7.70;47.70;;;;;;10337739;28;20719;-75
2022/11/19 18:56:46;;;;;;;10.60;9.57;;;7.70;47.70;;;;;;10343828;28;20237;-75
2022/11/19 19:01:54;;;;;;;23.67;21.20;;;7.70;48.50;;;;;;10341048;28;20956;-75
2022/11/19 19:06:58;;;;;;;18.80;16.80;;;7.80;47.70;;;;;;10382335;28;20287;-75
2022/11/19 19:12:20;;;;;;;15.17;13.57;;;7.80;47.70;;;;;;10379569;28;20713;-70
2022/11/19 19:17:25;;;;;;;14.10;12.60;;;7.80;47.80;;;;;;10379647;28;20237;-75
2022/11/19 19:22:29;;;;;;;12.07;10.83;;;7.90;47.90;;;;;;10379907;28;20236;-72
2022/11/19 19:27:32;;;;;;;13.57;12.03;;;7.90;47.70;;;;;;10376096;28;20609;-75
2022/11/19 19:32:37;;;;;;;12.47;11.27;;;7.90;47.80;;;;;;10387344;28;20245;-75
2022/11/19 19:37:41;;;;;;;13.03;11.67;;;7.90;47.70;;;;;;10379524;28;20645;-72
2022/11/19 19:42:44;;;;;;;12.83;11.53;;;8.00;47.80;;;;;;10373890;28;20230;-69
2022/11/19 19:47:49;;;;;;;12.47;11.00;;;8.00;47.80;;;;;;10388703;28;20896;-75
2022/11/19 19:52:52;;;;;;;10.93;9.67;;;8.00;47.70;;;;;;10393806;28;20288;-68
2022/11/19 19:57:55;;;;;;;10.33;9.30;;;8.00;47.70;;;;;;10380987;28;20224;-68
2022/11/19 20:02:59;;;;;;;10.70;9.63;;;8.00;47.70;;;;;;10380845;28;20236;-67
2022/11/19 20:08:03;;;;;;;10.47;9.47;;;8.00;47.60;;;;;;10381996;28;20230;-68
2022/11/19 20:18:28;;;;;;;10.13;9.03;;;7.90;47.50;;;;;;10383804;28;20230;-72
2022/11/19 20:23:31;;;;;;;9.33;8.43;;;7.90;47.60;;;;;;10384228;28;20234;-72
2022/11/19 20:28:35;;;;;;;8.80;7.90;;;7.90;47.60;;;;;;10382769;28;20230;-72
2022/11/19 20:33:40;;;;;;;7.80;7.10;;;7.90;47.60;;;;;;10386057;28;20229;-68
2022/11/19 20:38:45;;;;;;;7.00;6.40;;;7.90;47.30;;;;;;10382023;28;20253;-75
2022/11/19 20:49:12;;;;;;;8.73;7.87;;;7.80;47.40;;;;;;10389292;28;20221;-74
2022/11/19 20:54:20;;;;;;;9.57;8.67;;;7.80;48.30;;;;;;10381444;28;20229;-73
2022/11/19 20:59:24;;;;;;;7.63;6.93;;;7.80;47.80;;;;;;10378320;28;20586;-73
2022/11/19 21:04:35;;;;;;;7.30;6.60;;;7.80;47.70;;;;;;10384991;28;20241;-72
2022/11/19 21:09:38;;;;;;;7.10;6.43;;;7.80;47.80;;;;;;10378182;28;20238;-72
2022/11/19 21:14:42;;;;;;;8.33;7.53;;;7.80;47.80;;;;;;10378799;28;20230;-68
2022/11/19 21:19:47;;;;;;;8.67;7.87;;;7.90;47.60;;;;;;10372338;28;20221;-67
2022/11/19 21:24:50;;;;;;;7.80;7.10;;;7.90;47.60;;;;;;10379974;28;20226;-67
2022/11/19 21:29:53;;;;;;;7.93;7.23;;;7.90;47.60;;;;;;10377128;28;20237;-68
2022/11/19 21:34:58;;;;;;;7.27;6.57;;;7.90;47.50;;;;;;10378004;28;20234;-74
2022/11/19 21:40:01;;;;;;;8.03;7.27;;;7.90;47.30;;;;;;10373372;28;21020;-74
2022/11/19 21:45:05;;;;;;;7.67;6.97;;;7.90;47.40;;;;;;10381181;28;20260;-74
2022/11/19 21:50:09;;;;;;;7.50;6.80;;;7.80;47.60;;;;;;10374484;28;20225;-73
2022/11/19 21:55:13;;;;;;;7.07;6.47;;;7.80;47.70;;;;;;10372306;28;20234;-74
2022/11/19 22:00:16;;;;;;;7.57;6.87;;;7.80;47.80;;;;;;10377192;28;20649;-67
2022/11/19 22:05:21;;;;;;;7.93;7.20;;;7.80;47.90;;;;;;10373778;28;20597;-67
2022/11/19 22:10:27;;;;;;;8.57;7.77;;;7.90;48.00;;;;;;10377547;28;20745;-67
2022/11/19 22:15:30;;;;;;;7.63;6.90;;;7.90;47.90;;;;;;10373345;28;20769;-74
2022/11/19 22:20:35;;;;;;;7.90;7.20;;;7.90;48.00;;;;;;10376484;28;20237;-74
2022/11/19 22:25:38;;;;;;;7.97;7.23;;;7.90;47.90;;;;;;10381925;28;20241;-74
2022/11/19 22:30:41;;;;;;;6.87;6.27;;;8.00;47.90;;;;;;10375520;28;20221;-72
2022/11/19 22:35:46;;;;;;;6.53;5.90;;;8.00;48.00;;;;;;10377166;28;20234;-67
2022/11/19 22:40:49;;;;;;;6.57;5.97;;;8.00;47.90;;;;;;10374930;28;20687;-67
2022/11/19 22:45:52;;;;;;;7.97;7.27;;;8.00;48.00;;;;;;10372294;28;20226;-67
2022/11/19 22:50:57;;;;;;;7.37;6.67;;;8.00;48.00;;;;;;10376905;28;20229;-67
2022/11/19 22:56:00;;;;;;;6.27;5.67;;;8.10;48.00;;;;;;10375133;28;20230;-71
2022/11/19 23:01:05;;;;;;;7.83;7.13;;;8.10;47.90;;;;;;10376304;28;20228;-68
2022/11/19 23:06:09;;;;;;;7.63;6.93;;;8.10;47.70;;;;;;10372622;28;20605;-67
2022/11/19 23:11:14;;;;;;;7.17;6.53;;;8.10;47.70;;;;;;10372965;28;20217;-68
2022/11/19 23:16:19;;;;;;;7.17;6.53;;;8.10;47.60;;;;;;10370465;28;20257;-71
2022/11/19 23:21:25;;;;;;;6.40;5.80;;;8.10;47.50;;;;;;10375637;28;20230;-72
2022/11/19 23:26:30;;;;;;;7.63;6.93;;;8.00;47.50;;;;;;10366796;28;20237;-67
2022/11/19 23:31:35;;;;;;;7.30;6.70;;;7.90;47.40;;;;;;10368731;28;20241;-67
2022/11/19 23:36:41;;;;;;;7.20;6.50;;;7.90;47.70;;;;;;10373942;28;20577;-67
2022/11/19 23:41:45;;;;;;;6.03;5.47;;;7.80;47.80;;;;;;10369602;28;20226;-67
2022/11/19 23:46:48;;;;;;;6.60;6.00;;;7.80;47.80;;;;;;10378694;28;20230;-74
2022/11/19 23:51:52;;;;;;;6.83;6.03;;;7.80;48.00;;;;;;10370360;28;20222;-67
2022/11/19 23:56:56;;;;;;;6.07;5.57;;;7.80;48.30;;;;;;10375826;28;20233;-67
